EPKT/KTW METAR and TAF weather

Enter ICAO airport designator
Station Type Date Time Source
EPKT METAR 2020/07/10 14:30 UTC NOAA

EPKT 101430Z 20018KT CAVOK 30/14 Q1011


Station Type Date Time Source
EPKT Decoded METAR 2020/07/10 14:30 UTC NOAA

Katowice, Poland (EPKT) 50-14N 019-02E 284M
Jul 10, 2020 - 10:30 AM EDT / 2020.07.10 1430 UTC
Wind: from the SSW (200 degrees) at 21 MPH (18 KT):0
Visibility: greater than 7 mile(s):0
Temperature: 86 F (30 C)
Dew Point: 57 F (14 C)
Relative Humidity: 37%
Pressure (altimeter): 29.85 in. Hg (1011 hPa)
ob: EPKT 101430Z 20018KT CAVOK 30/14 Q1011
cycle: 14

Station Type Date Time Source
EPKT TAF 2020/07/10 12:33 UTC NOAA

TAF EPKT 101130Z 1012/1112 22014KT CAVOK
TEMPO 1012/1016 22017G27KT PROB30
TEMPO 1019/1024 VRB15G35KT 3000 TSRA BKN020CB
BECMG 1021/1024 36008KT
BECMG 1100/1103 BKN014
TEMPO 1103/1112 4000 SHRA BKN009 BKN014CB

Example: see airport list